createdAt,value
2018-04-09T00:00:29.524Z,10.26
2018-04-09T00:01:39.402Z,10.27
2018-04-09T00:02:49.540Z,10.32
2018-04-09T00:03:59.821Z,10.32
2018-04-09T00:05:10.011Z,10.32
2018-04-09T00:06:20.149Z,10.22
2018-04-09T00:07:30.310Z,10.32
2018-04-09T00:08:40.518Z,10.34
2018-04-09T00:09:50.661Z,10.36
2018-04-09T00:11:00.808Z,10.3
2018-04-09T00:12:10.941Z,10.22
2018-04-09T00:13:21.105Z,10.33
2018-04-09T00:14:31.288Z,10.26
2018-04-09T00:15:41.416Z,10.33
2018-04-09T00:16:51.841Z,10.29
2018-04-09T00:18:02.380Z,10.24
2018-04-09T00:19:12.582Z,10.27
2018-04-09T00:20:22.706Z,10.27
2018-04-09T00:21:32.887Z,10.27
2018-04-09T00:22:43.029Z,10.27
2018-04-09T00:23:53.257Z,10.24
2018-04-09T00:25:03.385Z,10.34
2018-04-09T00:26:13.553Z,10.34
2018-04-09T00:27:23.761Z,10.22
2018-04-09T00:28:33.923Z,10.33
2018-04-09T00:29:44.079Z,10.29
2018-04-09T00:30:54.274Z,10.27
2018-04-09T00:32:04.509Z,10.17
2018-04-09T00:33:14.861Z,10.22
2018-04-09T00:34:25.040Z,10.13
2018-04-09T00:35:34.971Z,10.17
2018-04-09T00:36:45.123Z,10.17
2018-04-09T00:37:55.266Z,10.15
2018-04-09T00:39:05.399Z,10.17
2018-04-09T00:40:15.552Z,10.15
2018-04-09T00:41:25.971Z,10.13
2018-04-09T00:42:36.110Z,10.15
2018-04-09T00:43:46.281Z,10
2018-04-09T00:44:56.436Z,10
2018-04-09T00:46:06.611Z,10.05
2018-04-09T00:47:16.932Z,9.92
2018-04-09T00:48:27.087Z,9.81
2018-04-09T00:49:37.171Z,9.75
2018-04-09T00:50:47.136Z,9.71
2018-04-09T00:51:57.041Z,9.67
2018-04-09T00:53:06.932Z,9.67
2018-04-09T00:54:17.080Z,9.55
2018-04-09T00:55:27.402Z,9.58
2018-04-09T00:56:37.643Z,9.52
2018-04-09T00:57:47.886Z,9.56
2018-04-09T00:58:57.810Z,9.42
2018-04-09T01:00:07.969Z,9.41
2018-04-09T01:01:17.864Z,9.42
2018-04-09T01:02:27.994Z,9.37
2018-04-09T01:03:38.118Z,9.48
2018-04-09T01:04:48.288Z,9.56
2018-04-09T01:05:58.177Z,9.56
2018-04-09T01:07:08.364Z,9.5
2018-04-09T01:08:18.522Z,9.58
2018-04-09T01:09:28.690Z,9.4
2018-04-09T01:10:38.589Z,9.42
2018-04-09T01:11:48.827Z,9.37
2018-04-09T01:12:59.082Z,9.47
2018-04-09T01:14:09.245Z,9.37
2018-04-09T01:15:19.381Z,9.41
2018-04-09T01:16:29.037Z,9.3
2018-04-09T01:17:39.082Z,9.35
2018-04-09T01:18:48.959Z,9.35
2018-04-09T01:19:58.849Z,9.34
2018-04-09T01:21:09.223Z,9.33
2018-04-09T01:22:19.364Z,9.27
2018-04-09T01:23:29.497Z,9.22
2018-04-09T01:24:39.711Z,9.16
2018-04-09T01:25:49.577Z,9.11
2018-04-09T01:26:59.125Z,9.17
2018-04-09T01:28:09.552Z,9.04
2018-04-09T01:29:19.920Z,9.05
2018-04-09T01:30:30.327Z,9
2018-04-09T01:31:40.496Z,9.05
2018-04-09T01:32:50.668Z,9.04
2018-04-09T01:34:00.852Z,9
2018-04-09T01:35:11.007Z,9.01
2018-04-09T01:36:21.123Z,8.97
2018-04-09T01:37:31.315Z,9.04
2018-04-09T01:38:41.475Z,9.04
2018-04-09T01:39:51.851Z,9.01
2018-04-09T01:41:01.986Z,8.89
2018-04-09T01:42:12.125Z,8.93
2018-04-09T01:43:21.994Z,8.89
2018-04-09T01:44:32.130Z,8.83
2018-04-09T01:45:41.841Z,8.75
2018-04-09T01:46:51.998Z,8.83
2018-04-09T01:48:02.179Z,8.82
2018-04-09T01:49:12.333Z,8.84
2018-04-09T01:50:23.493Z,8.7
2018-04-09T01:51:33.835Z,8.71
2018-04-09T01:52:43.689Z,8.68
2018-04-09T01:53:53.829Z,8.74
2018-04-09T01:55:03.951Z,8.74
2018-04-09T01:56:14.186Z,8.83
2018-04-09T01:57:25.389Z,8.7
2018-04-09T01:58:35.593Z,8.77
2018-04-09T01:59:45.567Z,8.79
2018-04-09T02:00:55.600Z,8.74
2018-04-09T02:02:05.807Z,8.71
2018-04-09T02:03:16.044Z,8.67
2018-04-09T02:04:26.202Z,8.66
2018-04-09T02:05:36.094Z,8.63
2018-04-09T02:06:46.296Z,8.61
2018-04-09T02:07:56.189Z,8.74
2018-04-09T02:09:05.725Z,8.6
2018-04-09T02:10:15.609Z,8.63
2018-04-09T02:11:25.751Z,8.68
2018-04-09T02:12:35.625Z,8.6
2018-04-09T02:13:45.528Z,8.66
2018-04-09T02:14:55.687Z,8.68
2018-04-09T02:16:05.686Z,8.57
2018-04-09T02:17:15.597Z,8.57
2018-04-09T02:18:25.730Z,8.5
2018-04-09T02:19:35.491Z,8.46
2018-04-09T02:20:45.619Z,8.49
2018-04-09T02:21:55.543Z,8.58
2018-04-09T02:23:05.337Z,8.55
2018-04-09T02:24:15.710Z,8.61
2018-04-09T02:25:25.846Z,8.52
2018-04-09T02:26:35.460Z,8.52
2018-04-09T02:27:45.332Z,8.49
2018-04-09T02:28:55.230Z,8.52
2018-04-09T02:30:05.651Z,8.48
2018-04-09T02:31:15.806Z,8.39
2018-04-09T02:32:25.932Z,8.4
2018-04-09T02:33:36.084Z,8.42
2018-04-09T02:34:45.962Z,8.37
2018-04-09T02:35:55.574Z,8.35
2018-04-09T02:37:05.370Z,8.39
2018-04-09T02:38:15.504Z,8.39
2018-04-09T02:39:25.640Z,8.48
2018-04-09T02:40:36.080Z,8.52
2018-04-09T02:41:46.573Z,8.52
2018-04-09T02:42:56.721Z,8.57
2018-04-09T02:44:06.117Z,8.63
2018-04-09T02:45:16.266Z,8.63
2018-04-09T02:46:26.400Z,8.63
2018-04-09T02:47:36.227Z,8.55
2018-04-09T02:48:46.542Z,8.6
2018-04-09T02:49:56.699Z,8.71
2018-04-09T02:51:06.906Z,8.74
2018-04-09T02:52:17.042Z,8.64
2018-04-09T02:53:27.207Z,8.68
2018-04-09T02:54:37.041Z,8.63
2018-04-09T02:55:47.259Z,8.66
2018-04-09T02:56:57.476Z,8.71
2018-04-09T02:58:07.345Z,8.77
2018-04-09T02:59:17.478Z,8.75
2018-04-09T03:00:27.643Z,8.7
2018-04-09T03:01:37.624Z,8.71
2018-04-09T03:02:47.744Z,8.6
2018-04-09T03:03:57.552Z,8.61
2018-04-09T03:05:07.733Z,8.61
2018-04-09T03:06:17.874Z,8.6
2018-04-09T03:07:27.744Z,8.63
2018-04-09T03:08:37.884Z,8.63
2018-04-09T03:09:47.731Z,8.58
2018-04-09T03:10:58.189Z,8.57
2018-04-09T03:12:08.415Z,8.66
2018-04-09T03:13:18.603Z,8.68
2018-04-09T03:14:28.751Z,8.61
2018-04-09T03:15:39.133Z,8.57
2018-04-09T03:16:49.281Z,8.55
2018-04-09T03:17:59.220Z,8.4
2018-04-09T03:19:09.420Z,8.53
2018-04-09T03:20:19.305Z,8.49
2018-04-09T03:21:29.252Z,8.43
2018-04-09T03:22:39.531Z,8.48
2018-04-09T03:23:49.898Z,8.46
2018-04-09T03:25:00.078Z,8.45
2018-04-09T03:26:10.085Z,8.43
2018-04-09T03:27:20.292Z,8.45
2018-04-09T03:28:31.393Z,8.48
2018-04-09T03:29:41.399Z,8.43
2018-04-09T03:30:51.518Z,8.42
2018-04-09T03:32:01.651Z,8.35
2018-04-09T03:33:12.102Z,8.39
2018-04-09T03:34:22.495Z,8.45
2018-04-09T03:35:32.692Z,8.35
2018-04-09T03:36:43.210Z,8.43
2018-04-09T03:37:53.087Z,8.43
2018-04-09T03:39:03.270Z,8.42
2018-04-09T03:40:13.136Z,8.42
2018-04-09T03:41:23.020Z,8.34
2018-04-09T03:42:32.817Z,8.35
2018-04-09T03:43:43.165Z,8.45
2018-04-09T03:44:52.859Z,8.39
2018-04-09T03:46:03.039Z,8.45
2018-04-09T03:47:12.913Z,8.34
2018-04-09T03:48:23.057Z,8.4
2018-04-09T03:49:33.188Z,8.45
2018-04-09T03:50:43.128Z,8.4
2018-04-09T03:51:53.288Z,8.52
2018-04-09T03:53:03.304Z,8.48
2018-04-09T03:54:13.265Z,8.48
2018-04-09T03:55:22.487Z,8.45
2018-04-09T03:56:32.627Z,8.37
2018-04-09T03:57:43.048Z,8.43
2018-04-09T03:58:53.383Z,8.43
2018-04-09T04:00:03.552Z,8.37
2018-04-09T04:01:13.681Z,8.42
2018-04-09T04:02:23.814Z,8.31
2018-04-09T04:03:33.696Z,8.3
2018-04-09T04:04:43.901Z,8.25
2018-04-09T04:05:53.871Z,8.15
2018-04-09T04:07:04.030Z,8.2
2018-04-09T04:08:14.195Z,8.13
2018-04-09T04:09:24.351Z,8.17
2018-04-09T04:10:34.150Z,8.23
2018-04-09T04:11:43.790Z,8.23
2018-04-09T04:12:53.678Z,8.25
2018-04-09T04:14:03.807Z,8.1
2018-04-09T04:15:14.171Z,8.13
2018-04-09T04:16:24.320Z,8.25
2018-04-09T04:17:34.238Z,8.24
2018-04-09T04:18:44.429Z,8.21
2018-04-09T04:19:54.578Z,8.21
2018-04-09T04:21:04.372Z,8.17
2018-04-09T04:22:14.542Z,8.09
2018-04-09T04:23:24.441Z,8.13
2018-04-09T04:24:34.808Z,8.13
2018-04-09T04:25:45.018Z,8.15
2018-04-09T04:26:55.454Z,8.13
2018-04-09T04:28:05.587Z,8.1
2018-04-09T04:29:15.730Z,8.16
2018-04-09T04:30:25.283Z,8.12
2018-04-09T04:31:35.725Z,8.2
2018-04-09T04:32:45.596Z,8.23
2018-04-09T04:33:55.744Z,8.16
2018-04-09T04:35:05.367Z,8.23
2018-04-09T04:36:15.672Z,8.23
2018-04-09T04:37:25.894Z,8.2
2018-04-09T04:38:36.039Z,8.17
2018-04-09T04:39:46.262Z,8.27
2018-04-09T04:40:56.532Z,8.32
2018-04-09T04:42:06.899Z,8.3
2018-04-09T04:43:16.665Z,8.25
2018-04-09T04:44:26.581Z,8.1
2018-04-09T04:45:36.991Z,8.21
2018-04-09T04:46:47.167Z,8.13
2018-04-09T04:47:57.269Z,8.12
2018-04-09T04:49:07.417Z,8.1
2018-04-09T04:50:17.027Z,8.09
2018-04-09T04:51:26.846Z,8.1
2018-04-09T04:52:37.075Z,8.03
2018-04-09T04:53:47.234Z,7.98
2018-04-09T04:54:57.195Z,7.99
2018-04-09T04:56:07.764Z,8.03
2018-04-09T04:57:17.745Z,8.03
2018-04-09T04:58:27.596Z,8.05
2018-04-09T04:59:37.752Z,8.02
2018-04-09T05:00:47.640Z,8.16
2018-04-09T05:01:57.813Z,8.17
2018-04-09T05:03:08.019Z,8.21
2018-04-09T05:04:18.186Z,8.13
2018-04-09T05:05:28.323Z,8.17
2018-04-09T05:06:37.910Z,8.13
2018-04-09T05:07:47.866Z,8.2
2018-04-09T05:08:58.284Z,8.23
2018-04-09T05:10:08.268Z,8.21
2018-04-09T05:11:18.479Z,8.13
2018-04-09T05:12:28.351Z,8.12
2018-04-09T05:13:38.260Z,8.15
2018-04-09T05:14:48.477Z,8.15
2018-04-09T05:15:58.648Z,8.02
2018-04-09T05:17:08.915Z,8.03
2018-04-09T05:18:19.138Z,7.98
2018-04-09T05:19:28.760Z,7.87
2018-04-09T05:20:38.964Z,7.92
2018-04-09T05:21:48.896Z,7.85
2018-04-09T05:22:59.085Z,7.85
2018-04-09T05:24:08.748Z,7.82
2018-04-09T05:25:18.737Z,7.82
2018-04-09T05:26:28.609Z,7.82
2018-04-09T05:27:38.577Z,7.84
2018-04-09T05:28:48.469Z,7.73
2018-04-09T05:29:59.632Z,7.64
2018-04-09T05:31:09.266Z,7.69
2018-04-09T05:32:19.502Z,7.73
2018-04-09T05:33:29.385Z,7.7
2018-04-09T05:34:39.588Z,7.79
2018-04-09T05:35:49.496Z,7.79
2018-04-09T05:36:59.588Z,7.74
2018-04-09T05:38:09.762Z,7.72
2018-04-09T05:39:19.893Z,7.7
2018-04-09T05:40:29.722Z,7.66
2018-04-09T05:41:39.614Z,7.7
2018-04-09T05:42:49.223Z,7.72
2018-04-09T05:43:58.770Z,7.64
2018-04-09T05:45:09.014Z,7.7
2018-04-09T05:46:19.210Z,7.76
2018-04-09T05:47:29.393Z,7.76
2018-04-09T05:48:39.666Z,7.73
2018-04-09T05:49:49.293Z,7.73
2018-04-09T05:50:58.957Z,7.7
2018-04-09T05:52:08.593Z,7.59
2018-04-09T05:53:18.213Z,7.67
2018-04-09T05:54:28.091Z,7.66
2018-04-09T05:55:38.254Z,7.7
2018-04-09T05:56:48.506Z,7.56
2018-04-09T05:59:39.957Z,7.59
2018-04-09T06:00:50.166Z,7.66
2018-04-09T06:02:00.320Z,7.76
2018-04-09T06:03:10.154Z,7.74
2018-04-09T06:04:20.390Z,7.8
2018-04-09T06:05:30.578Z,7.74
2018-04-09T06:06:40.553Z,7.79
2018-04-09T06:07:50.722Z,7.84
2018-04-09T06:09:00.872Z,7.8
2018-04-09T06:10:10.764Z,7.76
2018-04-09T06:11:21.094Z,7.9
2018-04-09T06:12:31.142Z,7.84
2018-04-09T06:13:40.830Z,7.88
2018-04-09T06:14:50.481Z,7.95
2018-04-09T06:16:00.698Z,7.98
2018-04-09T06:17:10.734Z,8.12
2018-04-09T06:18:21.015Z,8.17
2018-04-09T06:19:31.208Z,8.25
2018-04-09T06:20:40.770Z,8.3
2018-04-09T06:21:50.642Z,8.42
2018-04-09T06:23:00.824Z,8.37
2018-04-09T06:24:11.212Z,8.46
2018-04-09T06:25:21.096Z,8.48
2018-04-09T06:26:30.707Z,8.48
2018-04-09T06:27:40.862Z,8.58
2018-04-09T06:28:51.078Z,8.64
2018-04-09T06:30:01.216Z,8.68
2018-04-09T06:31:10.746Z,8.71
2018-04-09T06:32:20.867Z,8.77
2018-04-09T06:33:31.017Z,9
2018-04-09T06:34:41.250Z,9
2018-04-09T06:35:50.865Z,9.15
2018-04-09T06:37:01.107Z,9.11
2018-04-09T06:38:11.126Z,9.17
2018-04-09T06:39:21.271Z,9.26
2018-04-09T06:40:31.144Z,9.22
2018-04-09T06:41:40.885Z,9.23
2018-04-09T06:42:50.524Z,9.33
2018-04-09T06:44:00.656Z,9.44
2018-04-09T06:45:10.677Z,9.48
2018-04-09T06:46:20.867Z,9.52
2018-04-09T06:47:30.512Z,9.53
2018-04-09T06:48:40.258Z,9.5
2018-04-09T06:49:50.373Z,9.52
2018-04-09T06:51:00.154Z,9.6
2018-04-09T06:52:10.062Z,9.56
2018-04-09T06:53:19.952Z,9.66
2018-04-09T06:54:29.883Z,9.63
2018-04-09T06:55:40.017Z,9.73
2018-04-09T06:56:50.225Z,9.65
2018-04-09T06:58:00.368Z,9.75
2018-04-09T06:59:10.560Z,9.8
2018-04-09T07:00:20.743Z,9.88
2018-04-09T07:01:30.670Z,9.85
2018-04-09T07:02:40.819Z,9.85
2018-04-09T07:03:51.096Z,9.88
2018-04-09T07:05:01.249Z,9.88
2018-04-09T07:06:11.165Z,9.81
2018-04-09T07:07:21.301Z,9.91
2018-04-09T07:08:31.459Z,10
2018-04-09T07:09:41.625Z,9.95
2018-04-09T07:10:51.838Z,10.05
2018-04-09T07:12:01.492Z,9.91
2018-04-09T07:13:11.724Z,9.93
2018-04-09T07:14:22.924Z,9.91
2018-04-09T07:15:32.904Z,9.91
2018-04-09T07:16:42.782Z,9.88
2018-04-09T07:17:52.329Z,9.98
2018-04-09T07:19:02.505Z,9.99
2018-04-09T07:20:12.409Z,10.08
2018-04-09T07:21:21.931Z,10.07
2018-04-09T07:22:32.082Z,10.13
2018-04-09T07:23:41.966Z,10.13
2018-04-09T07:24:53.127Z,10.15
2018-04-09T07:26:07.286Z,10.27
2018-04-09T07:27:17.205Z,10.22
2018-04-09T07:28:26.980Z,10.3
2018-04-09T07:29:36.881Z,10.33
2018-04-09T07:30:47.039Z,10.32
2018-04-09T07:31:56.844Z,10.37
2018-04-09T07:33:07.047Z,10.37
2018-04-09T07:34:17.189Z,10.45
2018-04-09T07:35:27.390Z,10.45
2018-04-09T07:36:37.597Z,10.51
2018-04-09T07:37:47.618Z,10.57
2018-04-09T07:38:57.791Z,10.72
2018-04-09T07:40:07.921Z,10.76
2018-04-09T07:41:18.160Z,10.8
2018-04-09T07:42:28.310Z,11.02
2018-04-09T07:43:38.483Z,11.13
2018-04-09T07:44:48.703Z,11.33
2018-04-09T07:45:58.860Z,11.42
2018-04-09T07:47:09.146Z,11.52
2018-04-09T07:48:18.931Z,11.66
2018-04-09T07:49:29.084Z,11.74
2018-04-09T07:50:38.978Z,11.95
2018-04-09T07:51:49.290Z,12.02
2018-04-09T07:52:59.483Z,12.08
2018-04-09T07:54:09.641Z,12.2
2018-04-09T07:55:21.221Z,12.31
2018-04-09T07:56:31.377Z,12.39
2018-04-09T07:57:41.578Z,12.56
2018-04-09T07:58:51.798Z,12.85
2018-04-09T08:00:01.947Z,13.33
2018-04-09T08:01:12.216Z,14
2018-04-09T08:02:22.389Z,14.85
2018-04-09T08:03:32.024Z,15.51
2018-04-09T08:04:42.423Z,16.27
2018-04-09T08:05:52.725Z,16.86
2018-04-09T08:07:02.924Z,17.47
2018-04-09T08:08:13.206Z,17.95
2018-04-09T08:09:23.396Z,18.34
2018-04-09T08:10:33.546Z,18.65
2018-04-09T08:11:43.750Z,18.93
2018-04-09T08:12:53.911Z,19.21
2018-04-09T08:14:04.039Z,19.46
2018-04-09T08:15:15.787Z,19.82
2018-04-09T08:16:26.042Z,20.11
2018-04-09T08:18:48.751Z,20.46
2018-04-09T08:19:58.897Z,20.6
2018-04-09T08:21:09.050Z,20.82
2018-04-09T08:22:19.188Z,21.06
2018-04-09T08:23:29.425Z,21.27
2018-04-09T08:24:39.727Z,21.61
2018-04-09T08:25:49.916Z,21.73
2018-04-09T08:27:01.022Z,21.96
2018-04-09T08:28:11.222Z,22.27
2018-04-09T08:29:21.379Z,22.39
2018-04-09T08:30:31.716Z,22.53
2018-04-09T08:31:41.977Z,22.71
2018-04-09T08:32:52.369Z,22.89
2018-04-09T08:34:02.596Z,23.06
2018-04-09T08:35:12.876Z,23.18
2018-04-09T08:36:23.009Z,23.4
2018-04-09T08:37:33.163Z,23.46
2018-04-09T08:38:43.327Z,23.38
2018-04-09T08:39:53.994Z,23.35
2018-04-09T08:41:04.214Z,23.39
2018-04-09T08:42:14.416Z,23.27
2018-04-09T08:43:24.662Z,23.31
2018-04-09T08:44:35.069Z,23.39
2018-04-09T08:45:45.263Z,23.57
2018-04-09T08:46:55.446Z,23.57
2018-04-09T08:48:05.640Z,23.4
2018-04-09T08:49:15.777Z,23.27
2018-04-09T08:50:25.697Z,23.43
2018-04-09T08:51:35.860Z,23.33
2018-04-09T08:52:46.024Z,23.35
2018-04-09T08:53:56.184Z,23.36
2018-04-09T08:55:06.544Z,23.43
2018-04-09T08:56:16.704Z,23.58
2018-04-09T08:57:26.874Z,23.72
2018-04-09T08:58:36.995Z,23.7
2018-04-09T08:59:47.311Z,23.76
2018-04-09T09:00:58.494Z,23.58
2018-04-09T09:02:09.905Z,23.65
2018-04-09T09:03:20.093Z,23.68
2018-04-09T09:04:30.851Z,23.57
2018-04-09T09:05:41.026Z,23.75
2018-04-09T09:06:50.791Z,23.7
2018-04-09T09:08:00.874Z,23.82
2018-04-09T09:09:11.048Z,23.97
2018-04-09T09:10:21.223Z,24.13
2018-04-09T09:11:31.382Z,24.27
2018-04-09T09:12:41.673Z,24.39
2018-04-09T09:13:52.204Z,24.62
2018-04-09T09:15:02.371Z,24.72
2018-04-09T09:16:12.274Z,24.8
2018-04-09T09:17:22.514Z,24.91
2018-04-09T09:18:32.788Z,24.88
2018-04-09T09:19:46.184Z,24.95
2018-04-09T09:20:56.043Z,24.84
2018-04-09T09:22:06.085Z,24.78
2018-04-09T09:23:16.253Z,24.6
2018-04-09T09:24:26.466Z,24.4
2018-04-09T09:25:36.696Z,24.47
2018-04-09T09:26:46.885Z,24.62
2018-04-09T09:27:57.092Z,24.8
2018-04-09T09:29:06.900Z,24.76
2018-04-09T09:30:16.820Z,24.85
2018-04-09T09:31:26.727Z,24.9
2018-04-09T09:32:36.879Z,25.12
2018-04-09T09:33:47.144Z,25.09
2018-04-09T09:34:57.394Z,25.22
2018-04-09T09:36:08.648Z,25.4
2018-04-09T09:37:18.881Z,25.49
2018-04-09T09:38:29.103Z,25.64
2018-04-09T09:39:38.757Z,25.69
2018-04-09T09:40:48.945Z,25.73
2018-04-09T09:41:59.108Z,25.64
2018-04-09T09:43:08.672Z,25.56
2018-04-09T09:44:18.659Z,25.37
2018-04-09T09:45:28.810Z,25.21
2018-04-09T09:46:38.707Z,25.19
2018-04-09T09:47:48.866Z,25.15
2018-04-09T09:48:59.149Z,25.17
2018-04-09T09:51:20.170Z,25.42
2018-04-09T09:52:30.139Z,25.39
2018-04-09T09:53:39.471Z,25.31
2018-04-09T09:54:49.634Z,25.19
2018-04-09T09:55:59.605Z,25.1
2018-04-09T09:57:09.772Z,25.05
2018-04-09T09:58:19.986Z,24.82
2018-04-09T09:59:30.163Z,24.81
2018-04-09T10:00:40.348Z,24.62
2018-04-09T10:01:50.511Z,24.57
2018-04-09T10:03:00.464Z,24.38
2018-04-09T10:04:10.017Z,24.32
2018-04-09T10:05:20.245Z,24.34
2018-04-09T10:06:30.148Z,24.22
2018-04-09T10:07:40.338Z,24.15
2018-04-09T10:08:50.443Z,23.92
2018-04-09T10:10:00.616Z,23.9
2018-04-09T10:11:10.798Z,23.8
2018-04-09T10:12:20.955Z,23.69
2018-04-09T10:13:31.126Z,23.53
2018-04-09T10:14:41.317Z,23.51
2018-04-09T10:15:51.485Z,23.53
2018-04-09T10:17:01.655Z,23.57
2018-04-09T10:18:11.870Z,23.69
2018-04-09T10:19:21.524Z,23.7
2018-04-09T10:20:31.697Z,23.98
2018-04-09T10:21:41.855Z,24.07
2018-04-09T10:22:52.033Z,24.16
2018-04-09T10:24:02.223Z,24.28
2018-04-09T10:25:12.402Z,24.22
2018-04-09T10:26:22.452Z,24.24
2018-04-09T10:27:32.646Z,24.29
2018-04-09T10:28:42.450Z,24.27
2018-04-09T10:29:52.663Z,24.25
2018-04-09T10:31:02.861Z,24.28
2018-04-09T10:32:12.820Z,24.13
2018-04-09T10:33:23.063Z,24.27
2018-04-09T10:34:33.049Z,24.24
2018-04-09T10:35:43.021Z,24.16
2018-04-09T10:36:53.055Z,24.19
2018-04-09T10:38:02.986Z,24.22
2018-04-09T10:39:12.823Z,24.43
2018-04-09T10:40:23.070Z,24.7
2018-04-09T10:41:32.692Z,24.84
2018-04-09T10:42:42.899Z,25.05
2018-04-09T10:43:52.797Z,25.06
2018-04-09T10:45:02.965Z,25.18
2018-04-09T10:46:13.139Z,25.21
2018-04-09T10:47:23.040Z,25.25
2018-04-09T10:48:33.005Z,25.31
2018-04-09T10:49:42.979Z,25.39
2018-04-09T10:50:52.934Z,25.39
2018-04-09T10:52:03.250Z,25.05
2018-04-09T10:53:12.909Z,25
2018-04-09T10:54:22.898Z,24.85
2018-04-09T10:55:32.931Z,24.75
2018-04-09T10:56:43.185Z,24.73
2018-04-09T10:57:53.090Z,24.62
2018-04-09T10:59:03.017Z,24.5
2018-04-09T11:00:12.921Z,24.55
2018-04-09T11:01:22.839Z,24.47
2018-04-09T11:02:32.504Z,24.34
2018-04-09T11:03:42.700Z,24.1
2018-04-09T11:04:52.604Z,24.17
2018-04-09T11:06:02.148Z,24.19
2018-04-09T11:07:12.312Z,24.15
2018-04-09T11:08:22.234Z,24.06
2018-04-09T11:09:32.395Z,23.98
2018-04-09T11:10:42.590Z,23.88
2018-04-09T11:11:53.077Z,23.91
2018-04-09T11:13:03.992Z,24.09
2018-04-09T11:14:13.784Z,24.1
2018-04-09T11:15:23.984Z,24.43
2018-04-09T11:16:34.146Z,24.53
2018-04-09T11:17:44.313Z,24.62
2018-04-09T11:18:54.845Z,24.69
2018-04-09T11:20:05.062Z,24.63
2018-04-09T11:21:14.971Z,24.6
2018-04-09T11:22:24.888Z,24.7
2018-04-09T11:23:35.099Z,24.8
2018-04-09T11:24:45.288Z,24.82
2018-04-09T11:25:55.483Z,24.99
2018-04-09T11:27:05.392Z,24.94
2018-04-09T11:28:15.029Z,24.9
2018-04-09T11:29:24.967Z,24.85
2018-04-09T11:30:34.826Z,24.8
2018-04-09T11:31:44.644Z,24.78
2018-04-09T11:32:54.585Z,24.76
2018-04-09T11:34:04.422Z,24.67
2018-04-09T11:35:14.348Z,24.84
2018-04-09T11:36:24.521Z,25.07
2018-04-09T11:37:40.952Z,25.19
2018-04-09T11:38:51.192Z,25.22
2018-04-09T11:40:03.204Z,25.31
2018-04-09T11:41:14.635Z,25.25
2018-04-09T11:42:24.819Z,25.27
2018-04-09T11:43:35.016Z,25.37
2018-04-09T11:44:45.226Z,25.21
2018-04-09T11:45:55.461Z,25.18
2018-04-09T11:47:05.689Z,25.21
2018-04-09T11:48:15.633Z,25.25
2018-04-09T11:49:25.817Z,25.34
2018-04-09T11:50:35.997Z,25.34
2018-04-09T11:51:45.801Z,25.27
2018-04-09T11:52:55.713Z,25.25
2018-04-09T11:54:05.637Z,25.18
2018-04-09T11:55:15.323Z,24.87
2018-04-09T11:56:25.212Z,24.62
2018-04-09T11:57:35.165Z,24.6
2018-04-09T11:58:45.394Z,24.6
2018-04-09T11:59:55.260Z,24.62
2018-04-09T12:01:05.460Z,24.76
2018-04-09T12:02:15.820Z,24.9
2018-04-09T12:03:25.526Z,25.13
2018-04-09T12:04:34.838Z,25.24
2018-04-09T12:05:44.736Z,25.34
2018-04-09T12:06:54.675Z,25.47
2018-04-09T12:08:04.226Z,25.37
2018-04-09T12:09:14.077Z,25.34
2018-04-09T12:10:24.124Z,25.13
2018-04-09T12:11:34.464Z,25
2018-04-09T12:12:44.635Z,24.73
2018-04-09T12:13:54.555Z,24.45
2018-04-09T12:15:04.718Z,24.15
2018-04-09T12:16:14.286Z,23.95
2018-04-09T12:17:24.522Z,23.69
2018-04-09T12:18:34.165Z,23.42
2018-04-09T12:19:44.137Z,23.36
2018-04-09T12:20:54.108Z,23.17
2018-04-09T12:22:04.273Z,23.09
2018-04-09T12:23:14.201Z,22.87
2018-04-09T12:24:24.126Z,22.78
2018-04-09T12:25:33.946Z,22.65
2018-04-09T12:26:43.862Z,22.57
2018-04-09T12:27:54.043Z,22.43
2018-04-09T12:29:04.254Z,22.4
2018-04-09T12:30:14.472Z,22.34
2018-04-09T12:31:24.740Z,22.21
2018-04-09T12:32:35.008Z,22.16
2018-04-09T12:33:44.909Z,21.98
2018-04-09T12:34:55.085Z,21.94
2018-04-09T12:36:05.276Z,21.87
2018-04-09T12:37:15.260Z,21.78
2018-04-09T12:38:24.797Z,21.73
2018-04-09T12:39:34.877Z,21.73
2018-04-09T12:40:44.529Z,21.76
2018-04-09T12:41:54.839Z,21.75
2018-04-09T12:43:04.773Z,21.86
2018-04-09T12:44:14.937Z,21.87
2018-04-09T12:45:25.111Z,21.73
2018-04-09T12:46:35.270Z,21.72
2018-04-09T12:47:45.488Z,21.88
2018-04-09T12:48:55.866Z,21.81
2018-04-09T12:50:06.006Z,21.84
2018-04-09T12:51:16.377Z,21.73
2018-04-09T12:52:26.561Z,21.75
2018-04-09T12:53:36.756Z,21.81
2018-04-09T12:54:46.960Z,21.76
2018-04-09T12:55:56.887Z,21.71
2018-04-09T12:57:07.043Z,21.71
2018-04-09T12:58:17.249Z,21.61
2018-04-09T12:59:27.419Z,21.6
2018-04-09T13:00:37.661Z,21.4
2018-04-09T13:01:47.841Z,21.34
2018-04-09T13:02:58.023Z,21.35
2018-04-09T13:04:07.928Z,21.41
2018-04-09T13:05:18.251Z,21.45
2018-04-09T13:06:28.467Z,21.49
2018-04-09T13:07:38.766Z,21.53
2018-04-09T13:08:49.038Z,21.58
2018-04-09T13:09:59.182Z,21.58
2018-04-09T13:11:09.405Z,21.75
2018-04-09T13:12:19.585Z,21.75
2018-04-09T13:13:29.788Z,21.76
2018-04-09T13:14:39.967Z,21.94
2018-04-09T13:15:50.281Z,21.97
2018-04-09T13:17:00.495Z,22.02
2018-04-09T13:18:10.685Z,21.96
2018-04-09T13:19:20.907Z,21.87
2018-04-09T13:20:31.138Z,21.86
2018-04-09T13:21:41.375Z,21.87
2018-04-09T13:22:51.644Z,21.91
2018-04-09T13:24:01.585Z,21.91
2018-04-09T13:25:11.759Z,21.76
2018-04-09T13:26:21.928Z,21.86
2018-04-09T13:27:32.109Z,21.86
2018-04-09T13:28:42.297Z,21.75
2018-04-09T13:29:52.368Z,21.78
2018-04-09T13:31:02.533Z,21.71
2018-04-09T13:32:12.622Z,21.57
2018-04-09T13:33:22.811Z,21.56
2018-04-09T13:34:33.032Z,21.3
2018-04-09T13:35:43.500Z,21.3
2018-04-09T13:36:54.007Z,21.22
2018-04-09T13:38:04.203Z,21.13
2018-04-09T13:39:14.394Z,21.15
2018-04-09T13:40:24.592Z,21.13
2018-04-09T13:41:34.855Z,21.16
2018-04-09T13:42:45.045Z,21.06
2018-04-09T13:43:55.235Z,21.01
2018-04-09T13:45:05.445Z,20.98
2018-04-09T13:46:15.680Z,20.9
2018-04-09T13:47:25.877Z,20.75
2018-04-09T13:48:36.093Z,20.73
2018-04-09T13:49:46.344Z,20.72
2018-04-09T13:50:56.517Z,20.66
2018-04-09T13:52:06.713Z,20.63
2018-04-09T13:53:16.956Z,20.56
2018-04-09T13:54:27.133Z,20.56
2018-04-09T13:55:37.428Z,20.51
2018-04-09T13:56:47.646Z,20.51
2018-04-09T13:57:57.457Z,20.42
2018-04-09T13:59:07.671Z,20.39
2018-04-09T14:00:17.830Z,20.39
2018-04-09T14:01:28.015Z,20.45
2018-04-09T14:02:38.176Z,20.48
2018-04-09T14:03:48.360Z,20.42
2018-04-09T14:04:58.614Z,20.46
2018-04-09T14:06:08.766Z,20.45
2018-04-09T14:07:19.238Z,20.41
2018-04-09T14:08:29.424Z,20.42
2018-04-09T14:09:39.603Z,20.53
2018-04-09T14:10:49.813Z,20.54
2018-04-09T14:12:00.017Z,20.58
2018-04-09T14:13:11.174Z,20.51
2018-04-09T14:14:21.411Z,20.51
2018-04-09T14:15:31.624Z,20.49
2018-04-09T14:16:41.812Z,20.45
2018-04-09T14:17:51.994Z,20.45
2018-04-09T14:19:02.159Z,20.45
2018-04-09T14:20:12.329Z,20.49
2018-04-09T14:21:22.488Z,20.48
2018-04-09T14:22:32.665Z,20.48
2018-04-09T14:23:42.840Z,20.45
2018-04-09T14:24:53.047Z,20.42
2018-04-09T14:26:03.249Z,20.36
2018-04-09T14:27:13.432Z,20.41
2018-04-09T14:28:23.620Z,20.45
2018-04-09T14:29:33.810Z,20.46
2018-04-09T14:30:44.088Z,20.42
2018-04-09T14:31:54.338Z,20.51
2018-04-09T14:33:04.766Z,20.53
2018-04-09T14:34:15.053Z,20.53
2018-04-09T14:35:25.374Z,20.46
2018-04-09T14:36:35.612Z,20.45
2018-04-09T14:37:45.842Z,20.51
2018-04-09T14:38:56.042Z,20.42
2018-04-09T14:40:06.230Z,20.36
2018-04-09T14:41:16.399Z,20.42
2018-04-09T14:42:26.693Z,20.41
2018-04-09T14:43:36.930Z,20.43
2018-04-09T14:44:47.153Z,20.48
2018-04-09T14:45:57.379Z,20.51
2018-04-09T14:47:07.634Z,20.43
2018-04-09T14:48:17.840Z,20.42
2018-04-09T14:49:28.057Z,20.41
2018-04-09T14:50:38.256Z,20.43
2018-04-09T14:51:48.217Z,20.53
2018-04-09T14:52:58.417Z,20.38
2018-04-09T14:54:08.612Z,20.43
2018-04-09T14:55:18.819Z,20.42
2018-04-09T14:56:29.002Z,20.39
2018-04-09T14:57:39.225Z,20.28
2018-04-09T14:58:49.508Z,20.3
2018-04-09T14:59:59.451Z,20.2
2018-04-09T15:01:09.445Z,20.28
2018-04-09T15:02:19.649Z,20.3
2018-04-09T15:03:29.656Z,20.3
2018-04-09T15:04:39.927Z,20.2
2018-04-09T15:05:50.118Z,20.19
2018-04-09T15:07:00.335Z,20.11
2018-04-09T15:08:11.804Z,20.17
2018-04-09T15:09:22.010Z,20.07
2018-04-09T15:10:32.260Z,20.08
2018-04-09T15:11:42.489Z,19.97
2018-04-09T15:12:52.688Z,19.95
2018-04-09T15:14:02.864Z,20
2018-04-09T15:15:13.035Z,19.88
2018-04-09T15:16:23.241Z,19.89
2018-04-09T15:17:33.472Z,19.9
2018-04-09T15:18:43.753Z,19.85
2018-04-09T15:19:53.946Z,19.82
2018-04-09T15:21:04.134Z,19.85
2018-04-09T15:22:14.329Z,19.88
2018-04-09T15:23:24.495Z,19.89
2018-04-09T15:24:34.677Z,19.76